createdAt,value
2023-03-07T00:02:13.127Z,36.17
2023-03-07T00:04:43.939Z,34.15
2023-03-07T00:07:11.168Z,35.85
2023-03-07T00:09:38.396Z,35.50
2023-03-07T00:12:06.710Z,35.15
2023-03-07T00:14:34.272Z,34.92
2023-03-07T00:17:01.751Z,35.28
2023-03-07T00:19:29.094Z,34.42
2023-03-07T00:21:56.555Z,34.45
2023-03-07T00:24:24.019Z,35.83
2023-03-07T00:26:51.318Z,34.80
2023-03-07T00:29:18.581Z,34.88
2023-03-07T00:31:45.973Z,34.42
2023-03-07T00:34:13.414Z,34.85
2023-03-07T00:36:40.651Z,34.28
2023-03-07T00:39:08.402Z,35.55
2023-03-07T00:41:35.693Z,34.63
2023-03-07T00:44:03.215Z,35.75
2023-03-07T00:46:30.589Z,34.35
2023-03-07T00:48:58.147Z,34.15
2023-03-07T00:51:25.580Z,33.40
2023-03-07T00:53:53.031Z,33.70
2023-03-07T00:56:24.100Z,34.38
2023-03-07T00:58:52.051Z,34.38
2023-03-07T01:01:22.603Z,34.97
2023-03-07T01:03:53.436Z,33.63
2023-03-07T01:06:23.319Z,34.05
2023-03-07T01:08:51.394Z,33.30
2023-03-07T01:11:19.405Z,33.85
2023-03-07T01:13:47.345Z,33.67
2023-03-07T01:16:19.459Z,33.50
2023-03-07T01:18:50.582Z,33.25
2023-03-07T01:21:24.541Z,33.45
2023-03-07T01:23:52.602Z,33.05
2023-03-07T01:26:22.463Z,33.08
2023-03-07T01:28:55.428Z,33.75
2023-03-07T01:31:23.786Z,37.63
2023-03-07T01:33:52.753Z,35.08
2023-03-07T01:36:30.568Z,36.13
2023-03-07T01:39:14.026Z,33.80
2023-03-07T01:41:49.120Z,34.47
2023-03-07T01:44:25.020Z,35.17
2023-03-07T01:46:57.281Z,36.17
2023-03-07T01:49:52.465Z,35.20
2023-03-07T01:52:29.462Z,35.70
2023-03-07T01:55:05.068Z,38.97
2023-03-07T01:57:37.114Z,36.17
2023-03-07T02:00:09.921Z,34.88
2023-03-07T02:02:47.522Z,37.03
2023-03-07T02:05:28.053Z,36.13
2023-03-07T02:07:58.718Z,35.60
2023-03-07T02:10:30.000Z,34.88
2023-03-07T02:12:57.710Z,37.10
2023-03-07T02:15:25.316Z,38.60
2023-03-07T02:17:53.594Z,36.97
2023-03-07T02:20:44.890Z,38.83
2023-03-07T02:23:30.317Z,36.42
2023-03-07T02:26:20.430Z,36.80
2023-03-07T02:28:48.456Z,40.08
2023-03-07T02:31:16.708Z,37.15
2023-03-07T02:33:44.108Z,36.47
2023-03-07T02:36:16.010Z,37.33
2023-03-07T02:39:01.593Z,36.95
2023-03-07T02:41:32.273Z,36.78
2023-03-07T02:44:02.729Z,37.50
2023-03-07T02:46:30.460Z,38.22
2023-03-07T02:48:57.848Z,38.95
2023-03-07T02:51:25.258Z,39.55
2023-03-07T02:53:52.553Z,38.90
2023-03-07T02:56:19.860Z,37.58
2023-03-07T02:58:47.156Z,36.42
2023-03-07T03:01:14.676Z,35.70
2023-03-07T03:03:42.358Z,37.30
2023-03-07T03:06:10.144Z,40.08
2023-03-07T03:08:37.412Z,37.53
2023-03-07T03:11:04.807Z,38.30
2023-03-07T03:13:32.295Z,38.80
2023-03-07T03:15:59.858Z,37.60
2023-03-07T03:18:31.043Z,37.00
2023-03-07T03:20:59.810Z,36.78
2023-03-07T03:23:28.601Z,37.47
2023-03-07T03:26:02.583Z,35.58
2023-03-07T03:28:31.905Z,37.03
2023-03-07T03:31:01.536Z,36.03
2023-03-07T03:33:30.342Z,37.17
2023-03-07T03:35:59.582Z,36.72
2023-03-07T03:38:27.432Z,37.28
2023-03-07T03:40:56.351Z,37.80
2023-03-07T03:43:23.608Z,38.70
2023-03-07T03:45:55.472Z,36.67
2023-03-07T03:48:23.970Z,37.78
2023-03-07T03:50:51.595Z,39.00
2023-03-07T03:53:19.220Z,36.88
2023-03-07T03:55:46.511Z,37.72
2023-03-07T03:58:13.734Z,38.00
2023-03-07T04:00:40.995Z,37.28
2023-03-07T04:03:08.345Z,37.38
2023-03-07T04:05:35.695Z,38.40
2023-03-07T04:08:03.059Z,39.10
2023-03-07T04:10:30.465Z,39.72
2023-03-07T04:12:57.708Z,39.30
2023-03-07T04:15:25.239Z,38.22
2023-03-07T04:17:52.583Z,38.50
2023-03-07T04:20:20.792Z,38.08
2023-03-07T04:22:48.887Z,39.13
2023-03-07T04:25:17.124Z,38.83
2023-03-07T04:27:44.669Z,39.42
2023-03-07T04:30:12.327Z,40.00
2023-03-07T04:32:40.351Z,39.30
2023-03-07T04:35:08.105Z,41.13
2023-03-07T04:37:35.329Z,39.85
2023-03-07T04:40:02.652Z,41.28
2023-03-07T04:42:29.857Z,41.03
2023-03-07T04:44:57.249Z,41.22
2023-03-07T04:47:25.437Z,42.65
2023-03-07T04:49:52.720Z,41.55
2023-03-07T04:52:20.377Z,40.92
2023-03-07T04:54:48.169Z,44.85
2023-03-07T04:57:15.431Z,45.45
2023-03-07T04:59:42.865Z,46.22
2023-03-07T05:02:13.035Z,46.17
2023-03-07T05:04:41.465Z,45.75
2023-03-07T05:07:09.079Z,46.00
2023-03-07T05:09:36.640Z,46.65
2023-03-07T05:12:05.117Z,47.75
2023-03-07T05:14:32.529Z,48.10
2023-03-07T05:16:59.836Z,45.53
2023-03-07T05:19:27.149Z,47.83
2023-03-07T05:21:54.514Z,47.30
2023-03-07T05:24:21.871Z,46.72
2023-03-07T05:26:49.348Z,49.22
2023-03-07T05:29:16.694Z,47.70
2023-03-07T05:31:43.993Z,48.17
2023-03-07T05:34:11.752Z,47.55
2023-03-07T05:36:40.164Z,48.80
2023-03-07T05:39:08.388Z,48.53
2023-03-07T05:41:36.531Z,48.63
2023-03-07T05:44:04.851Z,47.17
2023-03-07T05:46:32.743Z,46.55
2023-03-07T05:49:00.112Z,44.55
2023-03-07T05:51:28.143Z,44.83
2023-03-07T05:53:55.900Z,43.97
2023-03-07T05:56:24.081Z,44.30
2023-03-07T05:58:51.490Z,43.78
2023-03-07T06:01:19.293Z,44.15
2023-03-07T06:03:47.694Z,44.25
2023-03-07T06:06:15.123Z,47.53
2023-03-07T06:08:43.370Z,46.15
2023-03-07T06:11:11.598Z,45.85
2023-03-07T06:13:40.088Z,45.63
2023-03-07T06:16:07.531Z,44.40
2023-03-07T06:18:35.810Z,44.60
2023-03-07T06:21:05.796Z,45.60
2023-03-07T06:23:37.834Z,43.80
2023-03-07T06:26:12.362Z,42.30
2023-03-07T06:28:41.281Z,45.78
2023-03-07T06:31:17.339Z,45.10
2023-03-07T06:33:45.514Z,45.10
2023-03-07T06:36:16.849Z,43.70
2023-03-07T06:38:48.590Z,44.95
2023-03-07T06:41:16.222Z,43.35
2023-03-07T06:43:43.675Z,45.42
2023-03-07T06:46:11.230Z,43.40
2023-03-07T06:48:41.711Z,43.70
2023-03-07T06:51:13.609Z,43.10
2023-03-07T06:53:43.105Z,45.17
2023-03-07T06:56:10.450Z,44.65
2023-03-07T06:58:39.139Z,45.83
2023-03-07T07:01:07.974Z,44.42
2023-03-07T07:03:36.439Z,43.05
2023-03-07T07:06:03.924Z,41.38
2023-03-07T07:08:31.817Z,42.38
2023-03-07T07:11:00.174Z,42.60
2023-03-07T07:13:29.354Z,43.42
2023-03-07T07:15:57.189Z,43.92
2023-03-07T07:18:25.223Z,43.10
2023-03-07T07:20:56.693Z,43.33
2023-03-07T07:23:27.118Z,44.50
2023-03-07T07:25:55.048Z,44.10
2023-03-07T07:28:22.781Z,44.33
2023-03-07T07:30:50.154Z,46.28
2023-03-07T07:33:17.529Z,47.47
2023-03-07T07:35:48.459Z,47.67
2023-03-07T07:38:16.300Z,45.63
2023-03-07T07:40:44.960Z,43.53
2023-03-07T07:43:15.733Z,46.15
2023-03-07T07:45:48.399Z,45.78
2023-03-07T07:48:19.965Z,46.35
2023-03-07T07:50:48.391Z,46.13
2023-03-07T07:53:18.654Z,46.83
2023-03-07T07:55:47.278Z,45.45
2023-03-07T07:58:14.631Z,45.55
2023-03-07T08:00:42.028Z,44.47
2023-03-07T08:03:09.337Z,44.63
2023-03-07T08:05:36.748Z,47.47
2023-03-07T08:08:04.308Z,46.05
2023-03-07T08:10:31.775Z,48.17
2023-03-07T08:12:59.032Z,47.70
2023-03-07T08:15:26.332Z,48.83
2023-03-07T08:17:53.610Z,47.55
2023-03-07T08:20:22.473Z,46.75
2023-03-07T08:22:50.726Z,47.15
2023-03-07T08:25:21.560Z,48.30
2023-03-07T08:27:53.107Z,48.00
2023-03-07T08:30:21.657Z,47.83
2023-03-07T08:32:50.707Z,46.70
2023-03-07T08:35:18.671Z,47.05
2023-03-07T08:37:49.043Z,47.95
2023-03-07T08:40:16.967Z,49.55
2023-03-07T08:42:44.316Z,46.85
2023-03-07T08:45:12.136Z,49.60
2023-03-07T08:47:39.371Z,49.10
2023-03-07T08:50:07.376Z,48.88
2023-03-07T08:52:34.634Z,49.70
2023-03-07T08:55:01.986Z,50.15
2023-03-07T08:57:29.269Z,49.45
2023-03-07T08:59:56.579Z,48.90
2023-03-07T09:02:24.062Z,49.60
2023-03-07T09:04:51.503Z,49.83
2023-03-07T09:07:19.315Z,48.40
2023-03-07T09:09:46.537Z,48.97
2023-03-07T09:12:14.880Z,46.45
2023-03-07T09:14:42.425Z,49.00
2023-03-07T09:17:09.831Z,47.60
2023-03-07T09:19:37.213Z,47.42
2023-03-07T09:22:04.677Z,48.38
2023-03-07T09:24:32.145Z,47.05
2023-03-07T09:26:59.389Z,47.20
2023-03-07T09:29:26.851Z,46.42
2023-03-07T09:31:54.645Z,47.38
2023-03-07T09:34:21.903Z,49.25
2023-03-07T09:36:51.558Z,49.78
2023-03-07T09:39:18.907Z,48.15
2023-03-07T09:42:18.448Z,46.95
2023-03-07T09:45:14.642Z,43.47
2023-03-07T09:48:32.918Z,43.50
2023-03-07T09:51:12.161Z,44.75
2023-03-07T09:53:43.946Z,43.60
2023-03-07T09:56:37.424Z,44.03
2023-03-07T09:59:24.577Z,43.10
2023-03-07T10:02:00.798Z,40.50
2023-03-07T10:07:03.942Z,41.67
2023-03-07T10:09:31.358Z,41.30
2023-03-07T10:12:11.490Z,42.05
2023-03-07T10:15:03.705Z,41.22
2023-03-07T10:18:08.930Z,41.33
2023-03-07T10:20:54.808Z,40.28
2023-03-07T10:23:41.231Z,42.37
2023-03-07T10:26:42.329Z,41.17
2023-03-07T10:29:22.413Z,42.10
2023-03-07T10:31:56.666Z,40.47
2023-03-07T10:34:30.740Z,39.15
2023-03-07T10:37:20.306Z,40.35
2023-03-07T10:39:52.688Z,38.08
2023-03-07T10:42:23.182Z,36.65
2023-03-07T10:44:51.727Z,37.72
2023-03-07T10:47:23.770Z,38.85
2023-03-07T10:49:55.778Z,37.47
2023-03-07T10:52:34.861Z,36.78
2023-03-07T10:55:34.015Z,35.70
2023-03-07T10:58:22.602Z,33.42
2023-03-07T11:01:01.945Z,30.52
2023-03-07T11:03:53.829Z,30.67
2023-03-07T11:06:40.321Z,28.33
2023-03-07T11:09:18.478Z,28.15
2023-03-07T11:11:53.989Z,28.48
2023-03-07T11:14:22.058Z,30.30
2023-03-07T11:16:55.777Z,28.98
2023-03-07T11:19:43.735Z,29.92
2023-03-07T11:22:21.961Z,29.40
2023-03-07T11:24:56.511Z,30.30
2023-03-07T11:27:36.263Z,31.85
2023-03-07T11:30:22.049Z,27.40
2023-03-07T11:33:17.842Z,27.95
2023-03-07T11:36:09.344Z,27.83
2023-03-07T11:39:02.895Z,28.83
2023-03-07T11:41:33.602Z,29.25
2023-03-07T11:44:19.033Z,27.95
2023-03-07T11:46:58.004Z,26.45
2023-03-07T11:49:42.996Z,25.83
2023-03-07T11:52:24.350Z,25.48
2023-03-07T11:55:24.217Z,25.08
2023-03-07T11:58:10.333Z,24.85
2023-03-07T12:00:58.909Z,23.85
2023-03-07T12:03:50.468Z,20.10
2023-03-07T12:06:49.889Z,18.30
2023-03-07T12:09:40.133Z,20.05
2023-03-07T12:12:28.885Z,20.92
2023-03-07T12:14:59.255Z,20.33
2023-03-07T12:18:03.577Z,18.83
2023-03-07T12:21:03.753Z,18.83
2023-03-07T12:23:39.068Z,18.38
2023-03-07T12:26:20.800Z,15.93
2023-03-07T12:29:11.029Z,14.10
2023-03-07T12:31:43.570Z,14.48
2023-03-07T12:34:10.968Z,14.60
2023-03-07T12:36:44.729Z,15.05
2023-03-07T12:39:24.587Z,14.82
2023-03-07T12:42:17.985Z,18.17
2023-03-07T12:44:59.813Z,17.00
2023-03-07T12:47:36.304Z,13.70
2023-03-07T12:50:35.033Z,12.25
2023-03-07T12:53:23.315Z,10.80
2023-03-07T12:56:15.286Z,12.38
2023-03-07T12:59:04.191Z,13.68
2023-03-07T13:01:40.314Z,14.18
2023-03-07T13:06:39.973Z,13.75
2023-03-07T13:09:13.642Z,13.68
2023-03-07T13:12:09.488Z,14.20
2023-03-07T13:14:51.647Z,13.60
2023-03-07T13:17:31.243Z,13.93
2023-03-07T13:19:59.715Z,12.52
2023-03-07T13:22:27.320Z,12.55
2023-03-07T13:24:56.616Z,12.43
2023-03-07T13:27:53.744Z,12.07
2023-03-07T13:32:52.158Z,11.98
2023-03-07T13:35:28.887Z,11.68
2023-03-07T13:37:57.473Z,11.38
2023-03-07T13:40:30.331Z,10.73
2023-03-07T13:42:57.729Z,11.90
2023-03-07T13:45:40.667Z,11.57
2023-03-07T13:48:15.481Z,11.05
2023-03-07T13:50:42.927Z,11.10
2023-03-07T13:53:20.951Z,10.57
2023-03-07T13:55:54.655Z,10.65
2023-03-07T13:58:25.384Z,10.88
2023-03-07T14:01:00.468Z,10.93
2023-03-07T14:03:32.340Z,11.07
2023-03-07T14:06:15.267Z,10.55
2023-03-07T14:08:43.043Z,10.32
2023-03-07T14:11:24.414Z,10.65
2023-03-07T14:14:08.058Z,10.90
2023-03-07T14:16:41.271Z,10.43
2023-03-07T14:19:36.369Z,9.68
2023-03-07T14:22:09.874Z,9.93
2023-03-07T14:24:46.432Z,10.38
2023-03-07T14:27:15.645Z,9.35
2023-03-07T14:29:56.850Z,9.25
2023-03-07T14:32:29.933Z,10.20
2023-03-07T14:34:58.247Z,9.50
2023-03-07T14:37:32.665Z,11.32
2023-03-07T14:39:59.939Z,9.98
2023-03-07T14:43:00.652Z,10.65
2023-03-07T14:45:49.748Z,9.70
2023-03-07T14:48:31.620Z,11.27
2023-03-07T14:51:06.936Z,12.93
2023-03-07T14:53:35.084Z,13.00
2023-03-07T14:56:07.603Z,12.23
2023-03-07T14:58:37.027Z,12.63
2023-03-07T15:01:07.018Z,11.68
2023-03-07T15:03:34.272Z,11.32
2023-03-07T15:06:02.952Z,12.30
2023-03-07T15:08:38.153Z,11.15
2023-03-07T15:11:20.418Z,11.65
2023-03-07T15:13:58.267Z,11.82
2023-03-07T15:16:41.388Z,12.68
2023-03-07T15:19:44.877Z,11.63
2023-03-07T15:22:19.887Z,12.70
2023-03-07T15:24:49.824Z,13.10
2023-03-07T15:27:23.248Z,11.95
2023-03-07T15:29:50.892Z,12.48
2023-03-07T15:32:40.109Z,12.77
2023-03-07T15:35:13.037Z,12.25
2023-03-07T15:38:07.273Z,12.75
2023-03-07T15:40:36.029Z,13.07
2023-03-07T15:43:04.517Z,12.50
2023-03-07T15:45:40.873Z,13.80
2023-03-07T15:50:37.885Z,13.73
2023-03-07T15:53:33.602Z,14.57
2023-03-07T15:56:05.067Z,13.02
2023-03-07T15:58:35.160Z,13.27
2023-03-07T16:01:23.074Z,13.27
2023-03-07T16:03:58.069Z,13.68
2023-03-07T16:06:45.043Z,12.35
2023-03-07T16:09:17.523Z,13.65
2023-03-07T16:11:46.597Z,12.48
2023-03-07T16:14:23.887Z,12.88
2023-03-07T16:16:53.281Z,12.50
2023-03-07T16:19:20.742Z,12.27
2023-03-07T16:21:48.141Z,12.82
2023-03-07T16:24:15.465Z,13.48
2023-03-07T16:26:44.183Z,12.40
2023-03-07T16:29:16.731Z,12.77
2023-03-07T16:31:44.695Z,12.45
2023-03-07T16:34:23.150Z,11.95
2023-03-07T16:36:50.442Z,12.63
2023-03-07T16:39:18.554Z,11.27
2023-03-07T16:41:48.782Z,11.35
2023-03-07T16:44:21.744Z,12.00
2023-03-07T16:47:03.743Z,9.43
2023-03-07T16:49:31.355Z,9.80
2023-03-07T16:52:05.829Z,8.52
2023-03-07T16:54:34.413Z,7.80
2023-03-07T16:57:02.542Z,6.68
2023-03-07T16:59:34.866Z,6.15
2023-03-07T17:02:09.873Z,5.15
2023-03-07T17:04:37.105Z,5.32
2023-03-07T17:07:05.583Z,4.97
2023-03-07T17:09:33.372Z,4.78
2023-03-07T17:12:00.681Z,4.68
2023-03-07T17:14:28.253Z,4.65
2023-03-07T17:16:55.523Z,3.95
2023-03-07T17:19:28.223Z,4.88
2023-03-07T17:21:58.567Z,4.07
2023-03-07T17:24:27.219Z,5.10
2023-03-07T17:26:56.383Z,4.78
2023-03-07T17:29:29.029Z,4.20
2023-03-07T17:31:56.573Z,4.13
2023-03-07T17:34:29.803Z,4.35
2023-03-07T17:36:57.863Z,5.15
2023-03-07T17:39:25.140Z,5.97
2023-03-07T17:41:52.388Z,5.30
2023-03-07T17:44:19.733Z,4.18
2023-03-07T17:46:47.378Z,4.57
2023-03-07T17:49:15.204Z,5.30
2023-03-07T17:51:42.556Z,4.18
2023-03-07T17:54:09.942Z,6.53
2023-03-07T17:56:37.806Z,7.13
2023-03-07T17:59:05.682Z,5.75
2023-03-07T18:01:34.918Z,5.63
2023-03-07T18:04:04.198Z,5.47
2023-03-07T18:06:33.969Z,5.40
2023-03-07T18:09:02.292Z,5.45
2023-03-07T18:11:29.610Z,5.53
2023-03-07T18:13:57.301Z,5.65
2023-03-07T18:16:24.764Z,5.95
2023-03-07T18:18:59.505Z,5.80
2023-03-07T18:21:29.994Z,5.38
2023-03-07T18:23:57.884Z,5.88
2023-03-07T18:26:25.310Z,5.38
2023-03-07T18:28:53.904Z,6.22
2023-03-07T18:31:28.665Z,6.07
2023-03-07T18:33:56.675Z,5.90
2023-03-07T18:36:25.278Z,5.40
2023-03-07T18:38:52.686Z,6.90
2023-03-07T18:41:24.664Z,6.97
2023-03-07T18:43:56.684Z,7.45
2023-03-07T18:46:27.138Z,7.00
2023-03-07T18:48:56.720Z,7.80
2023-03-07T18:51:25.993Z,8.15
2023-03-07T18:53:59.499Z,8.07
2023-03-07T18:56:27.710Z,7.25
2023-03-07T18:58:56.709Z,7.40
2023-03-07T19:01:29.663Z,7.60
2023-03-07T19:04:00.228Z,7.38
2023-03-07T19:06:39.613Z,8.18
2023-03-07T19:09:09.671Z,8.02
2023-03-07T19:11:36.995Z,9.38
2023-03-07T19:14:04.797Z,9.75
2023-03-07T19:16:32.178Z,8.13
2023-03-07T19:19:00.059Z,8.75
2023-03-07T19:21:29.494Z,9.73
2023-03-07T19:23:58.967Z,8.88
2023-03-07T19:26:26.274Z,8.00
2023-03-07T19:28:54.804Z,7.93
2023-03-07T19:31:28.029Z,8.50
2023-03-07T19:33:55.882Z,8.20
2023-03-07T19:36:32.060Z,8.32
2023-03-07T19:38:59.523Z,8.18
2023-03-07T19:41:28.651Z,8.20
2023-03-07T19:43:57.009Z,8.75
2023-03-07T19:46:25.281Z,8.02
2023-03-07T19:48:52.554Z,7.88
2023-03-07T19:51:22.640Z,10.50
2023-03-07T19:53:50.912Z,11.10
2023-03-07T19:56:22.478Z,10.02
2023-03-07T19:58:50.325Z,9.30
2023-03-07T20:01:20.485Z,8.52
2023-03-07T20:03:48.511Z,8.52
2023-03-07T20:06:19.853Z,7.43
2023-03-07T20:08:51.893Z,8.55
2023-03-07T20:11:30.391Z,7.85
2023-03-07T20:13:59.842Z,8.73
2023-03-07T20:16:29.490Z,8.52
2023-03-07T20:18:59.668Z,8.75
2023-03-07T20:21:28.763Z,7.35
2023-03-07T20:23:59.547Z,7.40
2023-03-07T20:26:33.235Z,7.40
2023-03-07T20:29:01.951Z,7.50
2023-03-07T20:31:30.724Z,8.55
2023-03-07T20:33:59.757Z,7.95
2023-03-07T20:36:30.211Z,8.95
2023-03-07T20:38:59.756Z,9.07
2023-03-07T20:41:29.230Z,9.18
2023-03-07T20:44:03.509Z,8.48
2023-03-07T20:46:32.129Z,9.43
2023-03-07T20:49:01.415Z,9.45
2023-03-07T20:51:31.390Z,9.52
2023-03-07T20:54:06.491Z,9.02
2023-03-07T20:56:35.610Z,9.15
2023-03-07T20:59:03.407Z,9.20
2023-03-07T21:01:32.581Z,8.32
2023-03-07T21:04:06.100Z,8.55
2023-03-07T21:06:34.515Z,8.55
2023-03-07T21:09:06.297Z,8.88
2023-03-07T21:11:35.466Z,8.75
2023-03-07T21:14:03.669Z,8.88
2023-03-07T21:16:31.492Z,9.70
2023-03-07T21:19:01.720Z,9.57
2023-03-07T21:21:31.685Z,9.93
2023-03-07T21:23:59.845Z,9.15
2023-03-07T21:26:31.320Z,9.07
2023-03-07T21:28:59.679Z,8.68
2023-03-07T21:31:32.080Z,8.25
2023-03-07T21:34:13.593Z,8.35
2023-03-07T21:36:48.744Z,8.65
2023-03-07T21:39:24.170Z,8.20
2023-03-07T21:41:51.848Z,8.00
2023-03-07T21:44:19.164Z,12.80
2023-03-07T21:46:46.927Z,8.20
2023-03-07T21:49:21.765Z,8.00
2023-03-07T21:51:50.113Z,8.55
2023-03-07T21:54:17.411Z,7.35
2023-03-07T21:56:44.967Z,8.23
2023-03-07T21:59:13.210Z,8.52
2023-03-07T22:01:44.883Z,7.72
2023-03-07T22:04:12.504Z,7.97
2023-03-07T22:06:39.755Z,8.30
2023-03-07T22:09:07.094Z,8.18
2023-03-07T22:11:34.373Z,7.78
2023-03-07T22:14:01.900Z,8.15
2023-03-07T22:16:29.227Z,8.60
2023-03-07T22:18:57.385Z,8.63
2023-03-07T22:21:26.779Z,8.02
2023-03-07T22:23:59.597Z,7.82
2023-03-07T22:26:28.869Z,8.50
2023-03-07T22:28:56.265Z,8.27
2023-03-07T22:31:24.716Z,8.38
2023-03-07T22:33:53.180Z,9.38
2023-03-07T22:36:20.677Z,8.75
2023-03-07T22:38:53.371Z,8.60
2023-03-07T22:41:22.683Z,9.02
2023-03-07T22:43:50.022Z,8.93
2023-03-07T22:46:17.400Z,8.98
2023-03-07T22:48:45.148Z,8.80
2023-03-07T22:51:14.847Z,8.27
2023-03-07T22:53:42.235Z,8.02
2023-03-07T22:56:30.776Z,7.80
2023-03-07T22:58:58.673Z,8.90
2023-03-07T23:01:28.394Z,8.35
2023-03-07T23:03:58.908Z,8.48
2023-03-07T23:06:29.520Z,8.30
2023-03-07T23:08:59.592Z,9.02
2023-03-07T23:11:29.973Z,8.38
2023-03-07T23:13:57.543Z,7.63
2023-03-07T23:16:28.176Z,8.18
2023-03-07T23:18:57.487Z,7.93
2023-03-07T23:21:27.823Z,8.30
2023-03-07T23:23:55.779Z,8.90
2023-03-07T23:26:28.974Z,8.80
2023-03-07T23:28:56.951Z,8.88
2023-03-07T23:31:30.487Z,8.85
2023-03-07T23:34:00.329Z,8.63
2023-03-07T23:36:30.029Z,8.60
2023-03-07T23:38:58.434Z,10.57
2023-03-07T23:41:26.717Z,11.55
2023-03-07T23:43:59.412Z,10.55
2023-03-07T23:46:28.136Z,10.48
2023-03-07T23:48:56.322Z,10.85
2023-03-07T23:51:24.403Z,10.57
2023-03-07T23:53:52.735Z,11.02
2023-03-07T23:56:20.247Z,11.20
2023-03-07T23:58:51.754Z,11.77
